Time;durP1;ratioP1;P1;durP2;ratioP2;P2;SDS_P1;SDS_P2;PMS_P1;PMS_P2;Temp;Humidity;BMP_temperature;BMP_pressure;BME280_temperature;BME280_humidity;BME280_pressure;Samples;Min_cycle;Max_cycle;Signal;HPM_P1;HPM_P2
2023/06/01 00:01:12;;;;;;;14.40;6.20;;;12.90;99.90;;;;;;5053844;28;20217;-87
2023/06/01 00:03:40;;;;;;;11.87;5.57;;;12.90;99.90;;;;;;5053411;28;20226;-87
2023/06/01 00:06:07;;;;;;;12.30;5.20;;;12.90;99.90;;;;;;5075860;28;20201;-86
2023/06/01 00:08:38;;;;;;;9.47;5.33;;;12.90;99.90;;;;;;5053323;28;20239;-86
2023/06/01 00:11:05;;;;;;;11.50;5.47;;;12.90;99.90;;;;;;5053592;28;20223;-86
2023/06/01 00:13:32;;;;;;;10.83;5.27;;;13.00;99.90;;;;;;5055168;28;20224;-86
2023/06/01 00:15:59;;;;;;;10.30;4.90;;;12.90;99.90;;;;;;5070847;28;20212;-87
2023/06/01 00:18:27;;;;;;;8.67;5.40;;;12.90;99.90;;;;;;5051396;28;20635;-87
2023/06/01 00:20:56;;;;;;;15.63;5.47;;;12.90;99.90;;;;;;5055561;28;20273;-86
2023/06/01 00:23:44;;;;;;;10.60;5.43;;;12.90;99.90;;;;;;5068593;28;20750;-86
2023/06/01 00:26:11;;;;;;;9.83;4.90;;;12.70;99.90;;;;;;5070183;28;20258;-85
2023/06/01 00:28:39;;;;;;;10.33;5.60;;;12.90;99.90;;;;;;5055085;28;20215;-85
2023/06/01 00:31:08;;;;;;;7.97;4.90;;;12.90;99.90;;;;;;5067561;28;20283;-85
2023/06/01 00:33:35;;;;;;;13.20;5.50;;;12.90;99.90;;;;;;5054947;28;20303;-86
2023/06/01 00:36:02;;;;;;;12.07;5.00;;;12.90;99.90;;;;;;5068429;28;20208;-87
2023/06/01 00:38:30;;;;;;;10.17;5.63;;;12.90;99.90;;;;;;5066533;28;20227;-86
2023/06/01 00:40:56;;;;;;;13.10;5.70;;;12.90;99.90;;;;;;5070541;28;20209;-85
2023/06/01 00:43:27;;;;;;;11.57;5.50;;;12.80;99.90;;;;;;5071243;28;20189;-86
2023/06/01 00:45:54;;;;;;;15.23;5.73;;;12.80;99.90;;;;;;5067953;28;20240;-85
2023/06/01 00:48:23;;;;;;;12.37;6.37;;;12.80;99.90;;;;;;5044879;28;20211;-86
2023/06/01 00:51:00;;;;;;;12.00;5.47;;;12.80;99.90;;;;;;5051495;28;20228;-87
2023/06/01 00:54:21;;;;;;;11.20;5.53;;;12.80;99.90;;;;;;5048332;28;20336;-84
2023/06/01 00:57:21;;;;;;;10.07;5.83;;;12.80;99.90;;;;;;5052857;28;20206;-85
2023/06/01 01:00:08;;;;;;;13.90;5.63;;;12.70;99.90;;;;;;5026223;28;20201;-86
2023/06/01 01:03:15;;;;;;;15.67;6.20;;;12.80;99.90;;;;;;5031537;28;20236;-86
2023/06/01 01:05:50;;;;;;;12.87;6.23;;;12.70;99.90;;;;;;5031948;28;20671;-85
2023/06/01 01:08:51;;;;;;;11.07;5.70;;;12.80;99.90;;;;;;5035212;28;20232;-87
2023/06/01 01:11:26;;;;;;;8.93;5.67;;;12.80;99.90;;;;;;5030618;28;20720;-86
2023/06/01 01:14:20;;;;;;;8.87;5.90;;;12.70;99.90;;;;;;5036451;28;20229;-88
2023/06/01 01:17:32;;;;;;;12.00;5.67;;;12.70;99.90;;;;;;5029220;28;20232;-87
2023/06/01 01:20:10;;;;;;;16.70;6.33;;;12.80;99.90;;;;;;5026407;28;20229;-85
2023/06/01 01:22:44;;;;;;;12.77;5.60;;;12.70;99.90;;;;;;5038547;28;20296;-87
2023/06/01 01:25:52;;;;;;;11.70;5.90;;;12.70;99.90;;;;;;5030088;28;20297;-87
2023/06/01 01:28:53;;;;;;;10.70;5.93;;;12.70;99.90;;;;;;5035855;28;20205;-86
2023/06/01 01:31:47;;;;;;;10.70;6.00;;;12.60;99.90;;;;;;5025057;28;20870;-87
2023/06/01 01:34:30;;;;;;;11.67;5.60;;;12.50;99.90;;;;;;5040095;28;20232;-86
2023/06/01 01:37:07;;;;;;;13.10;5.97;;;12.60;99.90;;;;;;5031874;28;20670;-86
2023/06/01 01:39:58;;;;;;;14.47;5.37;;;12.50;99.90;;;;;;5031328;28;20576;-86
2023/06/01 01:42:31;;;;;;;13.67;6.03;;;12.50;99.90;;;;;;5031677;28;20310;-89
2023/06/01 01:44:58;;;;;;;18.97;6.10;;;12.50;99.90;;;;;;5038016;28;20244;-85
2023/06/01 01:47:40;;;;;;;10.00;5.57;;;12.50;99.90;;;;;;5060475;28;20285;-86
2023/06/01 01:50:12;;;;;;;11.07;5.60;;;12.50;99.90;;;;;;5044446;28;20239;-84
2023/06/01 01:52:42;;;;;;;10.30;5.80;;;12.50;99.90;;;;;;5065369;28;20222;-86
2023/06/01 01:55:12;;;;;;;11.40;5.93;;;12.50;99.90;;;;;;5065571;28;20199;-84
2023/06/01 01:57:41;;;;;;;14.03;6.30;;;12.60;99.90;;;;;;5075454;28;20228;-85
2023/06/01 02:00:11;;;;;;;12.50;5.67;;;12.60;99.90;;;;;;5050020;28;20199;-85
2023/06/01 02:02:39;;;;;;;10.80;5.20;;;12.60;99.90;;;;;;5059604;28;20342;-85
2023/06/01 02:05:07;;;;;;;11.93;5.87;;;12.60;99.90;;;;;;5062299;28;20605;-87
2023/06/01 02:07:34;;;;;;;10.17;5.67;;;12.60;99.90;;;;;;5062336;28;20212;-86
2023/06/01 02:10:07;;;;;;;10.57;5.97;;;12.60;99.90;;;;;;5060795;28;20207;-85
2023/06/01 02:12:34;;;;;;;11.63;5.80;;;12.50;99.90;;;;;;5050003;28;20236;-86
2023/06/01 02:15:05;;;;;;;14.00;5.80;;;12.40;99.90;;;;;;5050874;28;20275;-84
2023/06/01 02:17:33;;;;;;;14.03;6.70;;;12.40;99.90;;;;;;5046610;28;20255;-87
2023/06/01 02:20:01;;;;;;;15.67;6.13;;;12.50;99.90;;;;;;5065794;28;20216;-85
2023/06/01 02:22:28;;;;;;;9.63;5.37;;;12.40;99.90;;;;;;5055046;28;20207;-88
2023/06/01 02:24:55;;;;;;;11.50;6.30;;;12.40;99.90;;;;;;5051961;28;20204;-86
2023/06/01 02:27:23;;;;;;;10.50;5.83;;;12.40;99.90;;;;;;5055492;28;20243;-88
2023/06/01 02:29:50;;;;;;;12.50;5.83;;;12.40;99.90;;;;;;5054146;28;20203;-85
2023/06/01 02:32:19;;;;;;;11.07;5.53;;;12.40;99.90;;;;;;5050715;28;20216;-85
2023/06/01 02:34:46;;;;;;;12.00;6.00;;;12.40;99.90;;;;;;5068828;28;20224;-87
2023/06/01 02:37:13;;;;;;;14.20;5.73;;;12.40;99.90;;;;;;5067892;28;20261;-86
2023/06/01 02:39:47;;;;;;;13.23;6.20;;;12.40;99.90;;;;;;5060072;28;20233;-88
2023/06/01 02:42:16;;;;;;;16.10;6.30;;;12.50;99.90;;;;;;5072222;28;20224;-87
2023/06/01 02:44:43;;;;;;;14.37;6.90;;;12.50;99.90;;;;;;5057144;28;20223;-86
2023/06/01 02:47:10;;;;;;;14.17;5.73;;;12.50;99.90;;;;;;5069007;28;20534;-86
2023/06/01 02:49:37;;;;;;;10.53;5.57;;;12.60;99.90;;;;;;5082768;28;20211;-87
2023/06/01 02:52:07;;;;;;;12.20;5.40;;;12.60;99.90;;;;;;5073959;28;20212;-85
2023/06/01 02:54:34;;;;;;;8.40;5.43;;;12.60;99.90;;;;;;5081903;28;20322;-86
2023/06/01 02:57:03;;;;;;;10.50;5.17;;;12.60;99.90;;;;;;5085337;28;20215;-86
2023/06/01 02:59:30;;;;;;;10.23;5.03;;;12.60;99.90;;;;;;5062444;28;20216;-85
2023/06/01 03:01:57;;;;;;;10.07;5.33;;;12.50;99.90;;;;;;5073494;28;20303;-87
2023/06/01 03:04:24;;;;;;;10.43;5.07;;;12.50;99.90;;;;;;5058158;28;20232;-86
2023/06/01 03:06:52;;;;;;;15.33;5.73;;;12.40;99.90;;;;;;5068188;28;20219;-85
2023/06/01 03:09:19;;;;;;;12.13;5.20;;;12.40;99.90;;;;;;5058208;28;20214;-86
2023/06/01 03:11:46;;;;;;;13.37;5.77;;;12.40;99.90;;;;;;5075570;28;20248;-87
2023/06/01 03:14:16;;;;;;;13.20;6.10;;;12.40;99.90;;;;;;5070606;28;20319;-86
2023/06/01 03:16:46;;;;;;;11.50;6.10;;;12.30;99.90;;;;;;5058512;28;20285;-86
2023/06/01 03:19:19;;;;;;;14.20;5.97;;;12.30;99.90;;;;;;5058209;28;20242;-88
2023/06/01 03:21:49;;;;;;;15.37;6.20;;;12.30;99.90;;;;;;5057941;28;20204;-87
2023/06/01 03:24:17;;;;;;;10.97;5.67;;;12.30;99.90;;;;;;5059382;28;20228;-90
2023/06/01 03:26:44;;;;;;;14.97;6.10;;;12.30;99.90;;;;;;5069489;28;20214;-87
2023/06/01 03:29:11;;;;;;;8.90;5.97;;;12.30;99.90;;;;;;5088308;28;20215;-86
2023/06/01 03:31:41;;;;;;;12.07;6.53;;;12.40;99.90;;;;;;5086262;28;20246;-86
2023/06/01 03:34:11;;;;;;;11.13;5.53;;;12.20;99.90;;;;;;5069038;28;20284;-87
2023/06/01 03:36:38;;;;;;;15.60;6.40;;;12.40;99.90;;;;;;5087034;28;20207;-85
2023/06/01 03:39:08;;;;;;;11.57;6.23;;;12.40;99.90;;;;;;5066424;28;20234;-87
2023/06/01 03:41:43;;;;;;;13.57;5.97;;;12.50;99.90;;;;;;5081691;28;20233;-87
2023/06/01 03:44:12;;;;;;;12.47;5.87;;;12.50;99.90;;;;;;5067278;28;20203;-86
2023/06/01 03:46:39;;;;;;;10.17;5.70;;;12.50;99.90;;;;;;5081506;28;20240;-85
2023/06/01 03:49:07;;;;;;;10.20;6.03;;;12.50;99.90;;;;;;5075660;28;20212;-87
2023/06/01 03:51:35;;;;;;;12.43;6.33;;;12.50;99.90;;;;;;5039731;28;20239;-86
2023/06/01 03:54:03;;;;;;;11.10;6.60;;;12.50;99.90;;;;;;5072574;28;20239;-87
2023/06/01 03:56:33;;;;;;;15.87;6.27;;;12.40;99.90;;;;;;5055055;28;20815;-85
2023/06/01 03:59:04;;;;;;;16.60;6.27;;;12.40;99.90;;;;;;5065894;28;20670;-87
2023/06/01 04:01:33;;;;;;;12.87;6.30;;;12.40;99.90;;;;;;5036936;28;20258;-88
2023/06/01 04:04:04;;;;;;;13.80;6.30;;;12.40;99.90;;;;;;5051538;28;20303;-86
2023/06/01 04:06:35;;;;;;;12.27;5.90;;;12.40;99.90;;;;;;5074837;28;20203;-86
2023/06/01 04:09:06;;;;;;;11.03;6.13;;;12.40;99.90;;;;;;5069638;28;20211;-86
2023/06/01 04:11:34;;;;;;;13.30;6.43;;;12.40;99.90;;;;;;5051807;28;21107;-87
2023/06/01 04:14:03;;;;;;;12.83;7.07;;;12.40;99.90;;;;;;5052418;28;20318;-86
2023/06/01 04:16:31;;;;;;;10.47;6.20;;;12.40;99.90;;;;;;5069337;28;20287;-86
2023/06/01 04:18:59;;;;;;;15.60;7.90;;;12.40;99.90;;;;;;5070983;28;20210;-87
2023/06/01 04:21:27;;;;;;;13.13;6.60;;;12.40;99.90;;;;;;5051314;28;20203;-85
2023/06/01 04:23:55;;;;;;;12.87;6.70;;;12.50;99.90;;;;;;5051964;28;20220;-86
2023/06/01 04:26:22;;;;;;;19.50;7.40;;;12.50;99.90;;;;;;5052697;28;20204;-87
2023/06/01 04:28:49;;;;;;;14.83;6.70;;;12.50;99.90;;;;;;5071997;28;20203;-85
2023/06/01 04:31:20;;;;;;;19.10;7.10;;;12.50;99.90;;;;;;5069699;28;20212;-85
2023/06/01 04:33:52;;;;;;;15.60;6.77;;;12.50;99.90;;;;;;5074313;28;20227;-87
2023/06/01 04:36:22;;;;;;;14.23;6.87;;;12.40;99.90;;;;;;5051703;28;20234;-86
2023/06/01 04:38:54;;;;;;;12.33;6.07;;;12.50;99.90;;;;;;5069405;28;20205;-86
2023/06/01 04:41:22;;;;;;;14.53;6.87;;;12.50;99.90;;;;;;5059201;28;20239;-86
2023/06/01 04:43:52;;;;;;;14.23;6.37;;;12.50;99.90;;;;;;5057042;28;20238;-86
2023/06/01 04:46:26;;;;;;;12.00;6.30;;;12.50;99.90;;;;;;5064495;28;20282;-86
2023/06/01 04:48:58;;;;;;;13.83;6.20;;;12.50;99.90;;;;;;5039868;28;20327;-87
2023/06/01 04:51:40;;;;;;;16.73;6.17;;;12.60;99.90;;;;;;5036128;28;20214;-87
2023/06/01 04:54:18;;;;;;;13.57;6.10;;;12.60;99.90;;;;;;5029802;28;20225;-85
2023/06/01 04:56:48;;;;;;;17.20;6.67;;;12.60;99.90;;;;;;5034545;28;20228;-87
2023/06/01 04:59:16;;;;;;;10.77;6.10;;;12.50;99.90;;;;;;5033925;28;20202;-86
2023/06/01 05:01:46;;;;;;;14.37;6.83;;;12.60;99.90;;;;;;5039626;28;20213;-86
2023/06/01 05:04:18;;;;;;;14.63;7.20;;;12.60;99.90;;;;;;5048328;28;20232;-86
2023/06/01 05:06:48;;;;;;;10.27;6.03;;;12.50;99.90;;;;;;5043519;28;20634;-87
2023/06/01 05:09:18;;;;;;;12.83;5.87;;;12.70;99.90;;;;;;5045420;28;20217;-88
2023/06/01 05:11:50;;;;;;;11.07;5.57;;;12.60;99.90;;;;;;5052794;28;20204;-86
2023/06/01 05:14:21;;;;;;;15.17;5.60;;;12.70;99.90;;;;;;5044101;28;20231;-85
2023/06/01 05:17:00;;;;;;;13.60;5.43;;;12.70;99.90;;;;;;5013731;28;20219;-82
2023/06/01 05:19:35;;;;;;;12.83;5.30;;;12.70;99.90;;;;;;5035128;28;20207;-82
2023/06/01 05:22:02;;;;;;;13.10;5.03;;;12.70;99.90;;;;;;5022872;28;20224;-84
2023/06/01 05:24:35;;;;;;;11.73;5.97;;;12.70;99.90;;;;;;5026721;28;20562;-84
2023/06/01 05:27:05;;;;;;;13.17;5.37;;;12.70;99.90;;;;;;5033861;28;20328;-86
2023/06/01 05:29:35;;;;;;;13.73;6.10;;;12.70;99.90;;;;;;5031310;28;20209;-88
2023/06/01 05:32:05;;;;;;;11.97;5.63;;;12.80;99.90;;;;;;5030638;28;20256;-87
2023/06/01 05:34:35;;;;;;;9.57;5.57;;;12.80;99.90;;;;;;5022437;28;20325;-83
2023/06/01 05:37:07;;;;;;;12.70;6.13;;;12.90;99.90;;;;;;5024776;28;20218;-86
2023/06/01 05:39:35;;;;;;;12.17;6.43;;;12.90;99.90;;;;;;5030211;28;20229;-85
2023/06/01 05:42:02;;;;;;;13.13;5.80;;;12.90;99.90;;;;;;5019788;28;20229;-86
2023/06/01 05:44:31;;;;;;;13.57;5.47;;;12.90;99.90;;;;;;5030888;28;20245;-83
2023/06/01 05:46:58;;;;;;;11.97;4.97;;;13.00;99.90;;;;;;5061565;28;20860;-84
2023/06/01 05:49:25;;;;;;;11.33;5.40;;;13.20;99.90;;;;;;5060777;28;20208;-84
2023/06/01 05:51:52;;;;;;;13.57;5.50;;;13.40;99.90;;;;;;5064866;28;20315;-84
2023/06/01 05:54:21;;;;;;;7.63;5.53;;;13.50;99.90;;;;;;5066411;28;20232;-82
2023/06/01 05:56:48;;;;;;;12.43;5.87;;;13.50;99.90;;;;;;5075895;28;20670;-84
2023/06/01 05:59:18;;;;;;;11.83;5.30;;;13.60;99.90;;;;;;5065683;28;20223;-85
2023/06/01 06:01:49;;;;;;;12.37;6.43;;;13.70;99.90;;;;;;5044646;28;20220;-86
2023/06/01 06:04:16;;;;;;;10.63;5.20;;;13.70;99.90;;;;;;5061462;28;20224;-85
2023/06/01 06:06:44;;;;;;;14.17;5.40;;;13.80;99.90;;;;;;5051710;28;20205;-85
2023/06/01 06:09:13;;;;;;;12.13;5.37;;;13.80;99.90;;;;;;5056167;28;20193;-86
2023/06/01 06:11:43;;;;;;;11.70;5.20;;;13.90;99.90;;;;;;5053130;28;20208;-87
2023/06/01 06:14:16;;;;;;;9.50;4.93;;;13.90;99.90;;;;;;5051078;28;20256;-85
2023/06/01 06:16:44;;;;;;;11.63;5.03;;;13.90;99.90;;;;;;5068711;28;20228;-86
2023/06/01 06:19:11;;;;;;;9.33;5.83;;;13.90;99.90;;;;;;5053328;28;20212;-89
2023/06/01 06:21:44;;;;;;;11.97;5.53;;;14.10;99.90;;;;;;5054468;28;20208;-87
2023/06/01 06:24:16;;;;;;;9.20;4.87;;;14.10;99.90;;;;;;5064100;28;20221;-89
2023/06/01 06:26:47;;;;;;;9.37;6.03;;;14.10;99.90;;;;;;5053512;28;20204;-89
2023/06/01 06:29:14;;;;;;;8.10;5.20;;;14.10;99.90;;;;;;5074978;28;20295;-87
2023/06/01 06:31:42;;;;;;;13.40;5.23;;;14.20;99.90;;;;;;5055646;28;20229;-90
2023/06/01 06:34:12;;;;;;;14.77;5.80;;;14.30;99.90;;;;;;5057245;28;20692;-88
2023/06/01 06:36:40;;;;;;;9.87;5.63;;;14.40;99.90;;;;;;5058244;28;20335;-87
2023/06/01 06:39:10;;;;;;;10.43;5.80;;;14.50;99.90;;;;;;5061132;28;20201;-88
2023/06/01 06:41:39;;;;;;;12.03;5.33;;;14.50;99.90;;;;;;5061822;28;20212;-87
2023/06/01 06:44:07;;;;;;;15.33;5.33;;;14.60;99.90;;;;;;5080717;28;20211;-88
2023/06/01 06:46:34;;;;;;;11.27;5.20;;;14.70;99.90;;;;;;5039631;28;20290;-87
2023/06/01 06:49:05;;;;;;;12.63;5.20;;;14.70;99.90;;;;;;5020826;28;20276;-87
2023/06/01 06:51:33;;;;;;;11.80;5.03;;;14.80;99.90;;;;;;5026000;28;20250;-88
2023/06/01 06:54:02;;;;;;;10.70;5.43;;;14.80;99.90;;;;;;5030448;28;20225;-86
2023/06/01 06:56:37;;;;;;;15.03;5.90;;;14.80;99.90;;;;;;5027738;28;20236;-87
2023/06/01 06:59:08;;;;;;;8.90;5.60;;;14.80;99.90;;;;;;5028354;28;20213;-88
2023/06/01 07:01:40;;;;;;;9.80;5.13;;;14.80;99.90;;;;;;5017925;28;20215;-86
2023/06/01 07:04:09;;;;;;;11.77;5.43;;;14.80;99.90;;;;;;5032246;28;20259;-86
2023/06/01 07:06:43;;;;;;;10.70;5.17;;;14.80;99.90;;;;;;5035711;28;20198;-86
2023/06/01 07:09:10;;;;;;;10.63;4.67;;;14.80;99.90;;;;;;5035798;28;20224;-89
2023/06/01 07:11:47;;;;;;;10.27;5.13;;;14.70;99.90;;;;;;5026741;28;20205;-86
2023/06/01 07:14:17;;;;;;;14.57;4.87;;;14.80;99.90;;;;;;5028859;28;20257;-88
2023/06/01 07:16:44;;;;;;;11.23;4.73;;;14.80;99.90;;;;;;5023314;28;20596;-87
2023/06/01 07:19:15;;;;;;;10.90;5.80;;;14.90;99.90;;;;;;5032101;28;20266;-84
2023/06/01 07:21:43;;;;;;;11.90;5.33;;;15.00;99.90;;;;;;5026732;28;20216;-85
2023/06/01 07:24:11;;;;;;;6.63;4.50;;;15.00;99.90;;;;;;5026060;28;20201;-87
2023/06/01 07:26:41;;;;;;;11.43;5.40;;;15.10;99.90;;;;;;5026763;28;20213;-87
2023/06/01 07:29:11;;;;;;;9.70;4.70;;;15.20;99.90;;;;;;5035969;28;20646;-85
2023/06/01 07:31:39;;;;;;;10.17;4.63;;;15.20;99.90;;;;;;5007887;28;20244;-85
2023/06/01 07:34:07;;;;;;;10.27;4.73;;;15.30;99.90;;;;;;5017129;28;20277;-85
2023/06/01 07:36:36;;;;;;;9.67;4.93;;;15.40;99.90;;;;;;5015989;28;20873;-86
2023/06/01 07:39:08;;;;;;;9.53;4.80;;;15.40;99.90;;;;;;5026418;28;20202;-87
2023/06/01 07:41:39;;;;;;;10.53;4.83;;;15.50;99.90;;;;;;5027389;28;20213;-85
2023/06/01 07:44:07;;;;;;;8.27;4.60;;;15.60;99.90;;;;;;5030982;28;20679;-87
2023/06/01 07:46:39;;;;;;;9.77;4.50;;;15.80;99.90;;;;;;5039143;28;20325;-87
2023/06/01 07:49:13;;;;;;;9.25;4.53;;;16.10;99.90;;;;;;5032641;28;20316;-88
2023/06/01 07:51:41;;;;;;;8.40;4.32;;;16.50;99.90;;;;;;5022129;28;20219;-88
2023/06/01 07:54:11;;;;;;;8.43;4.30;;;16.90;99.90;;;;;;5043786;28;20316;-87
2023/06/01 07:56:39;;;;;;;8.60;4.20;;;17.00;99.90;;;;;;5032176;28;20217;-87
2023/06/01 07:59:06;;;;;;;10.32;4.75;;;16.90;99.90;;;;;;5033227;28;20297;-88
2023/06/01 08:01:34;;;;;;;7.75;4.07;;;17.10;99.90;;;;;;5033676;28;20224;-87
2023/06/01 08:04:01;;;;;;;8.93;3.75;;;17.30;99.90;;;;;;5045304;28;20226;-88
2023/06/01 08:06:35;;;;;;;6.07;3.80;;;17.20;99.90;;;;;;5073623;28;20198;-86
2023/06/01 08:09:06;;;;;;;8.35;4.57;;;17.00;99.90;;;;;;5039177;28;20228;-87
2023/06/01 08:11:45;;;;;;;8.25;4.07;;;17.20;99.90;;;;;;5055959;28;20209;-88
2023/06/01 08:14:15;;;;;;;7.10;4.25;;;17.80;99.90;;;;;;5040645;28;20228;-90
2023/06/01 08:16:44;;;;;;;8.60;4.18;;;18.40;99.90;;;;;;5038231;28;20222;-87
2023/06/01 08:19:23;;;;;;;7.78;3.60;;;18.80;99.90;;;;;;5032311;28;20316;-90
2023/06/01 08:21:54;;;;;;;5.65;3.05;;;19.00;99.90;;;;;;5029877;28;20267;-88
2023/06/01 08:24:32;;;;;;;7.85;4.13;;;19.20;99.90;;;;;;5054074;28;20214;-89
2023/06/01 08:27:05;;;;;;;8.45;4.30;;;20.00;99.90;;;;;;5020403;28;20286;-88
2023/06/01 08:29:46;;;;;;;8.52;3.70;;;20.50;99.90;;;;;;5032706;28;20217;-89
2023/06/01 08:32:20;;;;;;;10.48;3.72;;;20.30;99.90;;;;;;5051662;28;20273;-89
2023/06/01 08:34:53;;;;;;;7.10;3.90;;;21.10;99.90;;;;;;5038827;28;20288;-88
2023/06/01 08:37:20;;;;;;;8.23;3.92;;;20.70;99.90;;;;;;5053762;28;20209;-88
2023/06/01 08:39:50;;;;;;;7.68;3.80;;;20.40;99.90;;;;;;5036830;28;20206;-89
2023/06/01 08:42:36;;;;;;;7.28;3.92;;;20.20;99.90;;;;;;5029764;28;20277;-91
2023/06/01 08:45:12;;;;;;;6.80;4.15;;;20.30;99.90;;;;;;5046506;28;20319;-87
2023/06/01 08:47:46;;;;;;;9.65;4.65;;;20.60;99.90;;;;;;5033516;28;20214;-88
2023/06/01 08:50:18;;;;;;;9.25;4.50;;;20.40;99.90;;;;;;5022605;28;20225;-88
2023/06/01 08:52:49;;;;;;;6.78;4.10;;;20.00;99.90;;;;;;5038739;28;20936;-88
2023/06/01 08:55:24;;;;;;;6.90;4.20;;;19.80;99.90;;;;;;5022929;28;20228;-87
2023/06/01 08:57:56;;;;;;;10.25;4.35;;;19.70;99.90;;;;;;5039855;28;20221;-90
2023/06/01 09:00:26;;;;;;;9.30;4.53;;;19.60;99.90;;;;;;5038654;28;20733;-88
2023/06/01 09:03:04;;;;;;;6.30;3.95;;;19.40;99.90;;;;;;5027087;28;20237;-89
2023/06/01 09:05:34;;;;;;;7.97;4.05;;;19.50;99.90;;;;;;5039770;28;20233;-89
2023/06/01 09:08:09;;;;;;;9.07;3.58;;;19.70;99.90;;;;;;5054508;28;20205;-87
2023/06/01 09:11:12;;;;;;;7.97;3.63;;;19.70;99.90;;;;;;5040323;28;20252;-90
2023/06/01 09:13:43;;;;;;;6.65;3.50;;;19.50;99.90;;;;;;5024827;28;20215;-88
2023/06/01 09:16:20;;;;;;;5.47;3.80;;;19.40;99.90;;;;;;5038263;28;20233;-89
2023/06/01 09:19:01;;;;;;;7.22;4.03;;;19.40;99.90;;;;;;5037745;28;20219;-90
2023/06/01 09:21:54;;;;;;;7.60;4.45;;;19.30;99.90;;;;;;5038274;28;20198;-90
2023/06/01 09:24:30;;;;;;;9.90;4.07;;;19.40;99.90;;;;;;5031233;28;20205;-87
2023/06/01 09:27:12;;;;;;;6.80;3.63;;;19.40;99.90;;;;;;5033094;28;20208;-89
2023/06/01 09:29:53;;;;;;;8.68;3.40;;;19.40;99.90;;;;;;5045421;28;20202;-90
2023/06/01 09:32:23;;;;;;;5.38;3.92;;;19.50;99.90;;;;;;5049668;28;20222;-87
2023/06/01 09:35:07;;;;;;;10.60;3.80;;;19.90;99.90;;;;;;5051326;28;20249;-88
2023/06/01 09:37:55;;;;;;;6.20;3.83;;;20.50;99.90;;;;;;5052048;28;20211;-87
2023/06/01 09:40:37;;;;;;;9.18;3.90;;;21.00;99.90;;;;;;5056203;28;20202;-88
2023/06/01 09:43:21;;;;;;;7.90;4.10;;;21.30;99.90;;;;;;5048641;28;20266;-87
2023/06/01 09:46:07;;;;;;;6.93;4.07;;;21.60;99.90;;;;;;5060181;28;20244;-87
2023/06/01 09:48:36;;;;;;;8.80;3.97;;;21.90;99.90;;;;;;5060944;28;20211;-88
2023/06/01 09:51:20;;;;;;;9.60;4.50;;;21.90;99.90;;;;;;5060158;28;20315;-87
2023/06/01 09:53:53;;;;;;;9.52;3.78;;;21.70;99.90;;;;;;5067449;28;20209;-88
2023/06/01 09:56:23;;;;;;;5.18;3.58;;;21.30;99.90;;;;;;5043912;28;20232;-89
2023/06/01 09:58:58;;;;;;;8.82;4.13;;;20.90;99.90;;;;;;5046788;28;20564;-86
2023/06/01 10:01:49;;;;;;;8.32;3.92;;;21.40;99.90;;;;;;5054706;28;20239;-89
2023/06/01 10:04:28;;;;;;;6.05;4.20;;;21.50;99.90;;;;;;5054435;28;20229;-87
2023/06/01 10:11:28;;;;;;;9.27;4.50;;;21.50;99.90;;;;;;5056868;28;20576;-89
2023/06/01 10:14:05;;;;;;;9.38;4.40;;;21.60;99.90;;;;;;5028852;28;20205;-89
2023/06/01 10:17:04;;;;;;;8.88;4.38;;;21.50;99.90;;;;;;5056920;28;20224;-92
2023/06/01 10:19:43;;;;;;;7.65;4.57;;;21.50;99.90;;;;;;5041057;28;20201;-89
2023/06/01 10:22:22;;;;;;;7.57;4.57;;;21.60;99.90;;;;;;5053043;28;20260;-89
2023/06/01 10:25:15;;;;;;;9.23;4.45;;;21.70;99.90;;;;;;5060786;28;20243;-89
2023/06/01 10:28:29;;;;;;;9.32;4.05;;;21.70;99.90;;;;;;5056657;28;20196;-90
2023/06/01 10:31:41;;;;;;;8.82;3.92;;;21.50;99.90;;;;;;5089848;28;20224;-89
2023/06/01 10:34:56;;;;;;;9.75;4.97;;;21.60;99.90;;;;;;5078398;28;20196;-88
2023/06/01 10:37:59;;;;;;;8.00;4.68;;;21.90;99.90;;;;;;5073515;28;20272;-88
2023/06/01 10:40:32;;;;;;;7.30;4.65;;;21.90;99.90;;;;;;5056234;28;20231;-89
2023/06/01 10:43:29;;;;;;;9.73;4.72;;;21.90;99.90;;;;;;5060704;28;20341;-90
2023/06/01 10:45:57;;;;;;;9.95;4.50;;;22.00;99.90;;;;;;5069840;28;20229;-89
2023/06/01 10:49:05;;;;;;;7.07;4.38;;;22.00;99.90;;;;;;5035646;28;20271;-91
2023/06/01 10:51:40;;;;;;;7.78;4.38;;;22.00;99.90;;;;;;5001706;28;20224;-89
2023/06/01 10:54:49;;;;;;;7.30;4.28;;;22.00;99.90;;;;;;5019395;28;20206;-88
2023/06/01 10:57:23;;;;;;;10.15;4.70;;;22.30;99.90;;;;;;5008728;28;20280;-90
2023/06/01 11:00:26;;;;;;;10.30;5.38;;;22.20;99.90;;;;;;5034637;28;20210;-89
2023/06/01 11:02:59;;;;;;;7.28;4.30;;;22.10;99.90;;;;;;5033512;28;20227;-92
2023/06/01 11:06:00;;;;;;;9.00;5.10;;;22.20;99.90;;;;;;5035212;28;20236;-89
2023/06/01 11:08:36;;;;;;;7.07;4.60;;;22.00;99.90;;;;;;5041482;28;20341;-91
2023/06/01 11:11:10;;;;;;;7.72;4.65;;;22.20;99.90;;;;;;5040364;28;20384;-89
2023/06/01 11:14:15;;;;;;;12.02;4.93;;;22.10;99.90;;;;;;5055143;28;20209;-89
2023/06/01 11:17:02;;;;;;;;;;;;;;;;;;;;;
2023/06/01 11:19:57;;;;;;;9.32;4.55;;;22.20;99.90;;;;;;5042136;28;20208;-90
2023/06/01 11:22:39;;;;;;;9.07;4.25;;;22.10;99.90;;;;;;5047283;28;20205;-87
2023/06/01 11:25:23;;;;;;;7.55;4.60;;;21.90;99.90;;;;;;5036920;28;20232;-90
2023/06/01 11:28:00;;;;;;;7.72;4.28;;;21.90;99.90;;;;;;5038274;28;20268;-92
2023/06/01 11:30:41;;;;;;;9.98;3.88;;;22.50;99.90;;;;;;5032136;28;20667;-92
2023/06/01 11:33:19;;;;;;;6.38;3.47;;;22.10;99.90;;;;;;5040705;28;20582;-91
2023/06/01 11:36:04;;;;;;;5.60;3.88;;;22.30;99.90;;;;;;5053497;28;20266;-93
2023/06/01 11:38:44;;;;;;;9.07;3.85;;;21.80;99.90;;;;;;5042630;28;20198;-92
2023/06/01 11:41:26;;;;;;;6.53;3.63;;;22.00;99.90;;;;;;5039187;28;20532;-91
2023/06/01 11:44:04;;;;;;;6.28;3.60;;;21.30;99.90;;;;;;5059811;28;20200;-90
2023/06/01 11:46:53;;;;;;;6.05;3.78;;;21.90;99.90;;;;;;5051407;28;20245;-89
2023/06/01 11:49:46;;;;;;;6.43;3.97;;;22.30;99.90;;;;;;5041483;28;20883;-91
2023/06/01 11:52:18;;;;;;;6.47;3.78;;;22.30;99.90;;;;;;5039252;28;20233;-86
2023/06/01 11:55:04;;;;;;;6.20;3.10;;;22.30;99.90;;;;;;5041796;28;20198;-89
2023/06/01 11:57:31;;;;;;;5.55;3.58;;;22.30;99.90;;;;;;5050192;28;20212;-90
2023/06/01 12:00:00;;;;;;;5.68;3.70;;;22.10;99.90;;;;;;5051649;28;20275;-86
2023/06/01 12:02:29;;;;;;;6.70;3.47;;;22.00;99.90;;;;;;5039728;28;20206;-88
2023/06/01 12:04:59;;;;;;;6.28;3.50;;;21.90;99.90;;;;;;5050635;28;20221;-86
2023/06/01 12:07:27;;;;;;;6.22;3.70;;;22.00;99.90;;;;;;5051721;28;20288;-85
2023/06/01 12:09:57;;;;;;;7.47;3.42;;;22.00;99.90;;;;;;5039830;28;20202;-86
2023/06/01 12:12:26;;;;;;;6.45;3.80;;;21.90;99.90;;;;;;5045427;28;20201;-87
2023/06/01 12:15:13;;;;;;;5.57;3.75;;;21.90;99.90;;;;;;5039548;28;20274;-87
2023/06/01 12:17:56;;;;;;;5.05;3.80;;;21.90;99.90;;;;;;5036146;28;20264;-86
2023/06/01 12:20:41;;;;;;;5.10;3.28;;;21.90;99.90;;;;;;5026409;28;20209;-88
2023/06/01 12:23:12;;;;;;;5.55;3.63;;;21.80;99.90;;;;;;5028052;28;20296;-83
2023/06/01 12:25:59;;;;;;;4.95;3.50;;;21.40;99.90;;;;;;5027397;28;20767;-85
2023/06/01 12:29:29;;;;;;;6.90;3.20;;;21.30;99.90;;;;;;5020870;28;20214;-85
2023/06/01 12:32:22;;;;;;;4.47;3.20;;;21.30;99.90;;;;;;5025737;28;20226;-85
2023/06/01 12:35:11;;;;;;;6.35;3.20;;;21.20;99.90;;;;;;5009917;28;20667;-85
2023/06/01 12:37:44;;;;;;;6.47;3.78;;;20.80;99.90;;;;;;5027384;28;20568;-83
2023/06/01 12:40:22;;;;;;;6.10;3.78;;;20.50;99.90;;;;;;5024137;28;20210;-90
2023/06/01 12:42:49;;;;;;;7.15;4.25;;;20.00;99.90;;;;;;5056125;28;20201;-89
2023/06/01 12:45:19;;;;;;;5.13;3.85;;;19.70;99.90;;;;;;5052119;28;20250;-85
2023/06/01 12:47:48;;;;;;;7.85;4.60;;;19.50;99.90;;;;;;5104060;28;20283;-88
2023/06/01 12:50:25;;;;;;;8.25;4.03;;;19.30;99.90;;;;;;5093861;28;20227;-87
2023/06/01 12:52:56;;;;;;;6.85;4.10;;;19.20;99.90;;;;;;5074170;28;20230;-86
2023/06/01 12:55:25;;;;;;;6.63;4.22;;;19.10;99.90;;;;;;5069601;28;20648;-86
2023/06/01 12:57:56;;;;;;;9.20;4.50;;;19.00;99.90;;;;;;5065756;28;20203;-86
2023/06/01 13:00:26;;;;;;;9.95;4.15;;;19.00;99.90;;;;;;5075463;28;20201;-85
2023/06/01 13:03:18;;;;;;;10.48;4.38;;;19.00;99.90;;;;;;5075377;28;20305;-85
2023/06/01 13:05:47;;;;;;;7.90;4.35;;;19.10;99.90;;;;;;5050525;28;20213;-82
2023/06/01 13:08:32;;;;;;;7.90;4.60;;;19.10;99.90;;;;;;5051525;28;20266;-85
2023/06/01 13:11:09;;;;;;;10.75;4.30;;;19.00;99.90;;;;;;5061103;28;20199;-86
2023/06/01 13:13:47;;;;;;;11.18;4.10;;;19.00;99.90;;;;;;5063789;28;20204;-89
2023/06/01 13:16:34;;;;;;;12.65;4.40;;;19.20;99.90;;;;;;5076980;28;20293;-89
2023/06/01 13:19:09;;;;;;;8.98;4.32;;;19.20;99.90;;;;;;5061370;28;20208;-89
2023/06/01 13:21:37;;;;;;;12.27;3.88;;;19.40;99.90;;;;;;5046452;28;20283;-89
2023/06/01 13:24:06;;;;;;;6.47;4.10;;;19.50;99.90;;;;;;5057048;28;20197;-87
2023/06/01 13:26:37;;;;;;;9.65;4.65;;;19.50;99.90;;;;;;5057753;28;20212;-89